Time;durP1;ratioP1;P1;durP2;ratioP2;P2;SDS_P1;SDS_P2;PMS_P1;PMS_P2;Temp;Humidity;BMP_temperature;BMP_pressure;BME280_temperature;BME280_humidity;BME280_pressure;Samples;Min_cycle;Max_cycle;Signal;HPM_P1;HPM_P2
2022/09/24 00:02:02;;;;;;;39.08;22.42;;;;;;;3.05;100.00;98219.01;1733339;81;21030;-82
2022/09/24 00:04:28;;;;;;;41.60;23.22;;;;;;;3.01;100.00;98216.50;1733149;82;21050;-87
2022/09/24 00:06:54;;;;;;;38.05;22.48;;;;;;;2.99;100.00;98217.75;1733463;82;21130;-83
2022/09/24 00:09:20;;;;;;;41.58;21.75;;;;;;;3.04;100.00;98210.69;1728359;82;20903;-83
2022/09/24 00:11:48;;;;;;;36.08;22.15;;;;;;;3.04;100.00;98210.69;1733350;82;21814;-87
2022/09/24 00:14:15;;;;;;;26.25;12.88;;;;;;;3.08;100.00;98211.88;1732949;81;21037;-84
2022/09/24 00:16:43;;;;;;;34.70;19.57;;;;;;;3.16;100.00;98210.72;1733286;82;21074;-83
2022/09/24 00:19:10;;;;;;;32.73;19.23;;;;;;;3.22;100.00;98210.34;1732968;81;21442;-87
2022/09/24 00:21:36;;;;;;;37.03;20.88;;;;;;;3.25;100.00;98204.55;1733463;82;21057;-83
2022/09/24 00:26:57;;;;;;;35.58;20.43;;;;;;;3.27;100.00;98204.61;1757917;81;21044;-83
2022/09/24 00:29:23;;;;;;;41.13;22.70;;;;;;;3.28;100.00;98202.75;1757842;81;21063;-87
2022/09/24 00:31:50;;;;;;;35.65;21.65;;;;;;;3.21;100.00;98204.70;1728080;81;21511;-83
2022/09/24 00:34:16;;;;;;;31.70;19.87;;;;;;;3.17;100.00;98202.20;1773399;80;21004;-83
2022/09/24 00:36:45;;;;;;;36.65;21.50;;;;;;;3.13;100.00;98199.66;1773802;80;21150;-83
2022/09/24 00:39:10;;;;;;;32.73;20.68;;;;;;;3.12;100.00;98200.19;1773230;80;21063;-84
2022/09/24 00:41:36;;;;;;;30.45;18.85;;;;;;;3.10;100.00;98194.25;1773157;80;20905;-88
2022/09/24 00:44:41;;;;;;;39.55;21.05;;;;;;;3.12;100.00;98194.83;1757353;81;21087;-83
2022/09/24 00:47:16;;;;;;;35.25;20.30;;;;;;;3.17;100.00;98186.13;1757678;81;21019;-83
2022/09/24 00:49:42;;;;;;;36.83;22.02;;;;;;;3.19;100.00;98183.50;1751212;80;21069;-83
2022/09/24 00:52:08;;;;;;;33.38;18.30;;;;;;;3.20;100.00;98184.32;1730710;81;20899;-83
2022/09/24 00:54:34;;;;;;;29.82;19.35;;;;;;;3.19;100.00;98183.50;1730824;82;20859;-84
2022/09/24 00:57:00;;;;;;;39.35;19.25;;;;;;;3.19;100.00;98184.03;1757503;81;21912;-83
2022/09/24 00:59:26;;;;;;;36.53;21.07;;;;;;;3.17;100.00;98187.47;1757435;81;21063;-84
2022/09/24 01:01:57;;;;;;;34.80;19.55;;;;;;;3.12;100.00;98178.77;1757658;81;21007;-83
2022/09/24 01:04:23;;;;;;;33.08;18.15;;;;;;;3.11;100.00;98183.83;1757384;80;21008;-87
2022/09/24 01:06:49;;;;;;;27.42;17.48;;;;;;;3.07;100.00;98176.75;1729795;81;21023;-83
2022/09/24 01:09:17;;;;;;;35.70;20.60;;;;;;;3.01;100.00;98180.89;1757226;81;21052;-84
2022/09/24 01:12:22;;;;;;;34.23;19.02;;;;;;;2.99;100.00;98178.94;1757824;81;21511;-87
2022/09/24 01:15:02;;;;;;;37.60;19.80;;;;;;;2.98;100.00;98175.44;1757454;81;21177;-88
2022/09/24 01:17:57;;;;;;;30.90;17.57;;;;;;;2.96;100.00;98166.83;1757418;81;21528;-83
2022/09/24 01:20:56;;;;;;;34.92;19.10;;;;;;;2.96;100.00;98162.00;1729490;81;20973;-82
2022/09/24 01:24:11;;;;;;;31.77;19.98;;;;;;;2.87;100.00;98162.84;1754944;81;21016;-86
2022/09/24 01:26:46;;;;;;;30.12;18.80;;;;;;;2.85;100.00;98161.44;1754694;81;22037;-83
2022/09/24 01:29:48;;;;;;;32.15;20.57;;;;;;;2.75;100.00;98151.28;1754220;81;21297;-82
2022/09/24 01:32:41;;;;;;;35.13;20.05;;;;;;;2.70;100.00;98158.63;1731476;81;21202;-84
2022/09/24 01:35:24;;;;;;;39.73;21.05;;;;;;;2.64;100.00;98159.52;1754359;81;20996;-85
2022/09/24 01:37:57;;;;;;;35.00;19.12;;;;;;;2.59;100.00;98155.91;1749300;81;21016;-83
2022/09/24 01:40:25;;;;;;;34.65;18.80;;;;;;;2.56;100.00;98155.81;1754388;81;21440;-87
2022/09/24 01:42:52;;;;;;;32.45;19.07;;;;;;;2.49;100.00;98156.44;1736713;81;21142;-82
2022/09/24 01:45:18;;;;;;;34.98;17.75;;;;;;;2.50;100.00;98161.56;1733177;82;21503;-83
2022/09/24 01:47:44;;;;;;;35.50;19.65;;;;;;;2.52;100.00;98160.00;1733303;82;21067;-84
2022/09/24 01:50:15;;;;;;;39.98;21.42;;;;;;;2.47;100.00;98159.31;1733226;82;21463;-85
2022/09/24 01:52:51;;;;;;;36.42;19.25;;;;;;;2.48;100.00;98162.84;1754456;80;20992;-86
2022/09/24 01:55:20;;;;;;;30.10;18.05;;;;;;;2.46;100.00;98159.02;1726657;82;21147;-82
2022/09/24 01:58:00;;;;;;;26.50;16.42;;;;;;;2.47;100.00;98163.85;1708063;83;21097;-87
2022/09/24 02:00:26;;;;;;;24.32;15.25;;;;;;;2.45;100.00;98157.39;1726717;82;21027;-83
2022/09/24 02:03:02;;;;;;;33.42;17.75;;;;;;;2.42;100.00;98161.86;1726775;82;21598;-84
2022/09/24 02:05:49;;;;;;;28.85;17.73;;;;;;;2.36;100.00;98161.41;1712393;82;21043;-82
2022/09/24 02:08:21;;;;;;;32.45;19.12;;;;;;;2.33;100.00;98159.72;1726589;82;21175;-86
2022/09/24 02:11:00;;;;;;;28.90;17.82;;;;;;;2.22;100.00;98159.92;1726688;82;20997;-83
2022/09/24 02:13:30;;;;;;;27.65;16.27;;;;;;;2.14;100.00;98157.05;1726753;82;21004;-82
2022/09/24 02:15:59;;;;;;;28.32;18.00;;;;;;;2.08;100.00;98154.44;1726786;82;21095;-88
2022/09/24 02:18:35;;;;;;;29.70;17.98;;;;;;;2.07;100.00;98152.80;1726943;82;21013;-83
2022/09/24 02:21:05;;;;;;;26.45;16.40;;;;;;;2.08;100.00;98151.77;1726856;82;21168;-87
2022/09/24 02:23:31;;;;;;;33.13;18.62;;;;;;;2.06;100.00;98156.52;1745466;81;21004;-83
2022/09/24 02:26:03;;;;;;;30.68;19.00;;;;;;;2.02;100.00;98151.30;1754151;81;21548;-82
2022/09/24 02:28:31;;;;;;;28.55;18.82;;;;;;;1.97;100.00;98151.46;1754189;81;21063;-87
2022/09/24 02:31:13;;;;;;;28.87;19.00;;;;;;;1.93;100.00;98144.91;1754151;81;21023;-87
2022/09/24 02:36:28;;;;;;;28.10;16.45;;;;;;;1.82;100.00;98142.97;1754478;81;21496;-82
2022/09/24 02:38:54;;;;;;;26.73;17.07;;;;;;;1.77;100.00;98146.81;1754321;81;20984;-88
2022/09/24 02:41:22;;;;;;;26.82;18.05;;;;;;;1.72;100.00;98140.52;1754499;81;20846;-87
2022/09/24 02:43:49;;;;;;;28.67;16.97;;;;;;;1.67;100.00;98140.63;1734159;79;21000;-83
2022/09/24 02:46:15;;;;;;;31.55;20.08;;;;;;;1.63;100.00;98134.11;1733371;82;21566;-87
2022/09/24 02:48:41;;;;;;;27.17;17.50;;;;;;;1.60;100.00;98137.20;1733242;82;20889;-83
2022/09/24 02:51:07;;;;;;;30.08;18.50;;;;;;;1.56;100.00;98129.34;1733201;82;21031;-86
2022/09/24 02:53:33;;;;;;;27.00;17.90;;;;;;;1.53;100.00;98126.27;1733235;82;21003;-84
2022/09/24 02:55:59;;;;;;;28.05;17.87;;;;;;;1.48;100.00;98124.80;1733122;82;20877;-83
2022/09/24 02:58:27;;;;;;;27.62;17.05;;;;;;;1.46;100.00;98126.35;1733091;82;21991;-83
2022/09/24 03:00:56;;;;;;;31.85;18.17;;;;;;;1.43;100.00;98131.30;1732482;82;21393;-87
2022/09/24 03:03:22;;;;;;;28.87;17.65;;;;;;;1.41;100.00;98124.84;1733362;82;21003;-82
2022/09/24 03:05:51;;;;;;;24.95;14.35;;;;;;;1.41;100.00;98129.66;1732962;82;21304;-86
2022/09/24 03:08:19;;;;;;;25.88;16.37;;;;;;;1.42;100.00;98129.14;1733263;82;24326;-87
2022/09/24 03:10:45;;;;;;;24.67;14.50;;;;;;;1.41;100.00;98128.84;1733059;82;21467;-83
2022/09/24 03:13:12;;;;;;;27.17;15.00;;;;;;;1.41;100.00;98131.52;1733029;82;21000;-83
2022/09/24 03:15:38;;;;;;;21.65;14.25;;;;;;;1.41;100.00;98126.18;1733181;82;20980;-82
2022/09/24 03:18:04;;;;;;;25.27;15.28;;;;;;;1.43;100.00;98125.95;1733072;82;21040;-87
2022/09/24 03:20:30;;;;;;;23.60;13.70;;;;;;;1.46;100.00;98126.35;1733538;82;21008;-87
2022/09/24 03:22:56;;;;;;;34.98;15.23;;;;;;;1.48;100.00;98120.79;1750944;80;21917;-87
2022/09/24 03:25:23;;;;;;;25.75;14.98;;;;;;;1.50;100.00;98127.53;1773439;80;20870;-83
2022/09/24 03:27:49;;;;;;;23.50;13.98;;;;;;;1.52;100.00;98125.45;1773696;80;21433;-87
2022/09/24 03:33:00;;;;;;;25.32;15.32;;;;;;;1.54;100.00;98120.73;1773705;80;21077;-87
2022/09/24 03:35:25;;;;;;;31.40;14.95;;;;;;;1.58;100.00;98128.59;1773595;80;21980;-87
2022/09/24 03:37:51;;;;;;;21.60;12.98;;;;;;;1.59;100.00;98122.73;1774001;80;20862;-87
2022/09/24 03:40:17;;;;;;;21.93;12.78;;;;;;;1.61;100.00;98119.31;1773750;80;21040;-87
2022/09/24 03:42:43;;;;;;;22.27;14.38;;;;;;;1.63;100.00;98113.27;1773571;80;20870;-83
2022/09/24 03:45:10;;;;;;;23.00;13.22;;;;;;;1.66;100.00;98116.30;1773618;80;20878;-82
2022/09/24 03:47:36;;;;;;;25.45;13.88;;;;;;;1.66;100.00;98117.63;1773662;80;21111;-83
2022/09/24 03:50:02;;;;;;;21.57;14.18;;;;;;;1.64;100.00;98116.23;1773537;80;20993;-87
2022/09/24 03:52:28;;;;;;;22.75;13.60;;;;;;;1.68;100.00;98117.41;1773688;80;20977;-87
2022/09/24 03:54:54;;;;;;;23.92;13.75;;;;;;;1.70;100.00;98126.83;1773506;80;21016;-83
2022/09/24 03:57:20;;;;;;;20.55;13.72;;;;;;;1.73;100.00;98120.77;1773770;80;21035;-87
2022/09/24 03:59:46;;;;;;;26.17;13.53;;;;;;;1.74;100.00;98121.88;1773552;80;21103;-83
2022/09/24 04:02:12;;;;;;;21.57;14.20;;;;;;;1.74;100.00;98114.38;1773462;80;21517;-87
2022/09/24 04:04:38;;;;;;;24.90;15.63;;;;;;;1.70;100.00;98112.66;1773783;80;20988;-83
2022/09/24 04:07:04;;;;;;;21.80;13.38;;;;;;;1.68;100.00;98110.73;1773740;80;20874;-87
2022/09/24 04:09:30;;;;;;;20.52;12.55;;;;;;;1.68;100.00;98112.88;1773683;80;21749;-82
2022/09/24 04:11:57;;;;;;;24.27;13.95;;;;;;;1.67;100.00;98110.44;1773683;80;21329;-83
2022/09/24 04:14:23;;;;;;;23.25;13.08;;;;;;;1.65;100.00;98110.66;1773670;80;21421;-83
2022/09/24 04:16:49;;;;;;;26.02;15.03;;;;;;;1.66;100.00;98114.14;1773806;80;20893;-83
2022/09/24 04:19:15;;;;;;;21.40;14.30;;;;;;;1.68;100.00;98114.73;1773666;80;20981;-82
2022/09/24 04:21:44;;;;;;;22.22;12.58;;;;;;;1.69;100.00;98113.70;1774034;80;20929;-87
2022/09/24 04:24:11;;;;;;;21.10;13.28;;;;;;;1.71;100.00;98103.63;1754925;80;21199;-83
2022/09/24 04:26:37;;;;;;;20.80;13.10;;;;;;;1.69;100.00;98118.52;1754412;81;21007;-83
2022/09/24 04:29:02;;;;;;;22.22;14.65;;;;;;;1.72;100.00;98119.14;1754329;81;20897;-88
2022/09/24 04:31:28;;;;;;;20.00;13.40;;;;;;;1.74;100.00;98117.87;1754378;81;20877;-83
2022/09/24 04:33:54;;;;;;;23.77;13.53;;;;;;;1.74;100.00;98115.72;1754425;81;21630;-83
2022/09/24 04:36:20;;;;;;;22.40;13.62;;;;;;;1.76;100.00;98118.46;1754336;81;21027;-87
2022/09/24 04:38:46;;;;;;;26.25;14.10;;;;;;;1.75;100.00;98115.49;1754422;81;20877;-82
2022/09/24 04:41:14;;;;;;;28.40;15.60;;;;;;;1.78;100.00;98114.23;1754361;81;20889;-83
2022/09/24 04:43:40;;;;;;;31.82;15.00;;;;;;;1.76;100.00;98112.30;1757809;81;21025;-83
2022/09/24 04:46:08;;;;;;;33.92;17.20;;;;;;;1.75;100.00;98110.67;1757817;81;21155;-82
2022/09/24 04:48:37;;;;;;;36.13;18.75;;;;;;;1.70;100.00;98109.98;1757926;81;22002;-85
2022/09/24 04:51:02;;;;;;;35.33;17.30;;;;;;;1.66;100.00;98106.13;1757436;81;21541;-85
2022/09/24 04:53:28;;;;;;;26.68;15.38;;;;;;;1.65;100.00;98101.83;1757777;81;21035;-84
2022/09/24 04:55:54;;;;;;;27.32;14.87;;;;;;;1.65;100.00;98100.50;1757846;81;20872;-89
2022/09/24 04:58:20;;;;;;;30.27;15.05;;;;;;;1.66;100.00;98094.11;1773273;80;20878;-84
2022/09/24 05:00:46;;;;;;;24.25;12.75;;;;;;;1.64;100.00;98090.33;1778890;80;21085;-89
2022/09/24 05:03:12;;;;;;;31.82;16.65;;;;;;;1.70;100.00;98097.95;1778864;80;20977;-85
2022/09/24 05:05:38;;;;;;;20.75;14.70;;;;;;;1.70;100.00;98091.28;1778858;80;20898;-89
2022/09/24 05:08:04;;;;;;;19.25;13.78;;;;;;;1.74;100.00;98092.48;1779019;80;20897;-89
2022/09/24 05:10:31;;;;;;;25.10;14.18;;;;;;;1.74;100.00;98090.34;1778948;80;20893;-89
2022/09/24 05:12:58;;;;;;;29.32;17.55;;;;;;;1.70;100.00;98090.76;1779003;80;22020;-85
2022/09/24 05:15:24;;;;;;;25.80;14.35;;;;;;;1.69;100.00;98094.47;1779077;80;21006;-89
2022/09/24 05:17:50;;;;;;;25.52;14.70;;;;;;;1.73;100.00;98095.39;1778873;80;20849;-85
2022/09/24 05:20:16;;;;;;;21.02;14.80;;;;;;;1.76;100.00;98093.08;1779076;80;20905;-84
2022/09/24 05:22:46;;;;;;;26.55;14.03;;;;;;;1.83;100.00;98088.48;1770657;80;21028;-85
2022/09/24 05:25:13;;;;;;;20.08;12.63;;;;;;;1.88;100.00;98090.48;1754514;81;21472;-90
2022/09/24 05:27:46;;;;;;;21.42;14.15;;;;;;;1.99;100.00;98085.75;1754417;81;21060;-83
2022/09/24 05:30:12;;;;;;;27.32;15.30;;;;;;;2.03;100.00;98084.25;1754521;81;21072;-87
2022/09/24 05:32:38;;;;;;;22.37;14.13;;;;;;;2.16;100.00;98084.62;1754611;81;21071;-87
2022/09/24 05:35:07;;;;;;;23.00;14.03;;;;;;;2.24;100.00;98085.14;1754592;81;21543;-83
2022/09/24 05:37:33;;;;;;;20.55;12.35;;;;;;;2.36;100.00;98081.70;1754629;81;21081;-87
2022/09/24 05:40:46;;;;;;;26.30;13.28;;;;;;;2.44;100.00;98085.41;1754670;81;21433;-84
2022/09/24 05:42:27;;;;;;;21.80;15.23;;;;;;;2.57;100.00;98079.89;1752235;80;21068;-87
2022/09/24 05:44:54;;;;;;;26.42;14.93;;;;;;;2.68;100.00;98089.00;1747802;82;21024;-88
2022/09/24 05:47:19;;;;;;;24.02;14.65;;;;;;;2.81;100.00;98082.92;1747666;82;21056;-83
2022/09/24 05:49:45;;;;;;;21.20;15.43;;;;;;;2.98;100.00;98075.05;1748611;82;22021;-87
2022/09/24 05:52:12;;;;;;;18.57;13.60;;;;;;;3.19;100.00;98084.95;1748084;82;20920;-84
2022/09/24 05:54:38;;;;;;;24.77;16.17;;;;;;;3.37;100.00;98081.64;1747412;82;21521;-88
2022/09/24 05:57:04;;;;;;;22.60;15.10;;;;;;;3.64;100.00;98081.19;1747412;82;21599;-88
2022/09/24 05:59:31;;;;;;;27.20;16.10;;;;;;;3.85;100.00;98082.47;1747633;82;20889;-82
2022/09/24 06:01:57;;;;;;;24.75;16.32;;;;;;;3.99;100.00;98082.48;1747266;82;21028;-88
2022/09/24 06:04:23;;;;;;;25.65;16.55;;;;;;;4.14;100.00;98077.98;1747669;82;20921;-88
2022/09/24 06:06:49;;;;;;;25.85;16.12;;;;;;;4.47;100.00;98074.09;1747517;81;21336;-83
2022/09/24 06:09:15;;;;;;;29.63;18.32;;;;;;;4.47;100.00;98074.09;1747361;81;22291;-88
2022/09/24 06:11:42;;;;;;;33.58;21.68;;;;;;;4.64;100.00;98077.36;1747742;82;20933;-84
2022/09/24 06:14:08;;;;;;;34.65;21.02;;;;;;;4.74;100.00;98084.26;1747385;82;21288;-88
2022/09/24 06:16:34;;;;;;;27.40;17.95;;;;;;;4.82;100.00;98081.19;1747222;82;20992;-86
2022/09/24 06:19:00;;;;;;;29.42;20.10;;;;;;;4.92;100.00;98081.36;1747344;82;20909;-88
2022/09/24 06:21:26;;;;;;;26.75;19.27;;;;;;;5.02;100.00;98090.13;1747461;82;20942;-88
2022/09/24 06:23:52;;;;;;;24.75;17.15;;;;;;;5.15;100.00;98087.14;1768975;80;20890;-86
2022/09/24 06:26:18;;;;;;;24.95;16.20;;;;;;;5.26;100.00;98086.24;1773532;80;21313;-83
2022/09/24 06:28:44;;;;;;;25.17;14.75;;;;;;;5.37;100.00;98084.53;1773573;80;21587;-88
2022/09/24 06:31:11;;;;;;;20.10;13.75;;;;;;;5.46;100.00;98084.94;1773682;80;20910;-83
2022/09/24 06:33:37;;;;;;;26.48;14.65;;;;;;;5.57;100.00;98089.43;1773482;80;21452;-89
2022/09/24 06:36:03;;;;;;;20.30;14.43;;;;;;;5.69;100.00;98092.02;1773598;80;20906;-83
2022/09/24 06:38:29;;;;;;;21.33;12.78;;;;;;;5.85;100.00;98087.14;1773383;80;21199;-84
2022/09/24 06:41:00;;;;;;;15.93;12.18;;;;;;;5.96;100.00;98085.44;1773626;80;21657;-83
2022/09/24 06:43:26;;;;;;;17.92;12.20;;;;;;;6.09;100.00;98088.59;1760488;80;21445;-88
2022/09/24 06:45:56;;;;;;;15.63;11.83;;;;;;;6.25;100.00;98084.23;1757083;81;21448;-84
2022/09/24 06:48:23;;;;;;;16.17;12.43;;;;;;;6.43;100.00;98093.33;1757301;81;21079;-88
2022/09/24 06:50:50;;;;;;;17.77;11.83;;;;;;;6.61;100.00;98095.42;1757389;81;21300;-89
2022/09/24 06:53:17;;;;;;;19.62;11.33;;;;;;;6.76;100.00;98092.90;1757346;81;21015;-88
2022/09/24 06:55:43;;;;;;;19.02;11.90;;;;;;;6.81;100.00;98083.51;1758317;80;21032;-89
2022/09/24 06:58:15;;;;;;;18.32;9.95;;;;;;;6.99;100.00;98076.95;1731267;80;21064;-88
2022/09/24 07:00:41;;;;;;;16.40;11.38;;;;;;;7.14;100.00;98085.19;1735142;82;21512;-89
2022/09/24 07:03:15;;;;;;;16.37;10.93;;;;;;;7.30;100.00;98080.20;1738994;81;21117;-88
2022/09/24 07:05:41;;;;;;;18.57;10.18;;;;;;;7.42;100.00;98081.91;1734865;82;20988;-89
2022/09/24 07:08:07;;;;;;;25.23;14.73;;;;;;;7.42;100.00;98081.91;1738839;81;20923;-89
2022/09/24 07:10:33;;;;;;;26.23;17.05;;;;;;;7.47;100.00;98084.12;1738893;82;21102;-83
2022/09/24 07:12:59;;;;;;;16.17;10.95;;;;;;;7.67;100.00;98086.14;1747821;80;21043;-83
2022/09/24 07:15:25;;;;;;;18.52;11.10;;;;;;;7.89;100.00;98090.08;1738115;82;22027;-83
2022/09/24 07:17:57;;;;;;;28.10;16.95;;;;;;;8.07;100.00;98090.18;1738915;82;20857;-83
2022/09/24 07:20:27;;;;;;;23.32;13.43;;;;;;;8.12;100.00;98092.38;1739643;82;22109;-88
2022/09/24 07:22:52;;;;;;;;;;;;;;;8.16;100.00;98089.42;1736916;81;21506;-83
2022/09/24 07:25:18;;;;;;;18.25;10.63;;;;;;;8.29;100.00;98092.20;1739487;82;20162;-86
2022/09/24 07:27:43;;;;;;;20.40;11.33;;;;;;;8.47;100.00;98085.55;1739445;82;21220;-88
2022/09/24 07:30:11;;;;;;;21.30;13.43;;;;;;;8.63;100.00;98091.80;1739588;82;21566;-83
2022/09/24 07:32:37;;;;;;;16.73;11.25;;;;;;;8.70;100.00;98095.06;1738761;81;21572;-83
2022/09/24 07:35:04;;;;;;;15.58;10.10;;;;;;;8.76;100.00;98094.82;1738859;82;21487;-83
2022/09/24 07:37:34;;;;;;;15.65;9.35;;;;;;;8.81;100.00;98100.80;1738895;80;21003;-88
2022/09/24 07:39:58;;;;;;;16.90;10.38;;;;;;;8.80;100.00;98103.20;1738017;82;21326;-83
2022/09/24 07:42:24;;;;;;;15.08;9.53;;;;;;;8.85;100.00;98100.52;1727290;82;21058;-83
2022/09/24 07:44:51;;;;;;;17.27;11.18;;;;;;;8.87;100.00;98097.00;1709358;84;21027;-83
2022/09/24 07:47:17;;;;;;;16.32;10.85;;;;;;;8.92;100.00;98105.14;1721389;81;21099;-88
2022/09/24 07:49:43;;;;;;;18.23;11.50;;;;;;;9.08;99.68;98104.64;1740314;82;21024;-89
2022/09/24 07:52:10;;;;;;;16.87;11.22;;;;;;;9.22;99.90;98103.55;1729389;82;21087;-88
2022/09/24 07:54:36;;;;;;;14.90;9.65;;;;;;;9.37;99.71;98109.53;1749497;80;21499;-89
2022/09/24 07:57:02;;;;;;;16.27;10.88;;;;;;;9.53;99.21;98108.45;1772797;80;21023;-88
2022/09/24 07:59:29;;;;;;;18.75;10.25;;;;;;;9.56;97.34;98111.96;1770189;80;21017;-83
2022/09/24 08:01:55;;;;;;;17.35;10.95;;;;;;;9.53;98.13;98107.91;1779131;80;20977;-84
2022/09/24 08:04:21;;;;;;;20.80;12.85;;;;;;;9.60;97.65;98107.11;1779478;80;21168;-84
2022/09/24 08:06:47;;;;;;;12.98;9.25;;;;;;;9.71;98.24;98103.04;1774998;80;20885;-88
2022/09/24 08:09:15;;;;;;;13.88;9.55;;;;;;;9.82;97.70;98109.51;1756777;81;21048;-89
2022/09/24 08:11:41;;;;;;;16.32;10.38;;;;;;;9.79;98.52;98106.55;1758486;80;21272;-88
2022/09/24 08:14:07;;;;;;;14.40;9.53;;;;;;;9.87;98.45;98101.94;1759646;80;21032;-83
2022/09/24 08:16:33;;;;;;;15.20;11.25;;;;;;;9.98;98.12;98102.19;1764820;80;21151;-83
2022/09/24 08:18:59;;;;;;;16.77;9.83;;;;;;;9.97;95.81;98097.86;1760653;80;21242;-89
2022/09/24 08:21:26;;;;;;;16.02;9.68;;;;;;;10.07;94.95;98100.54;1759762;81;20992;-84
2022/09/24 08:23:52;;;;;;;15.38;9.75;;;;;;;10.29;96.65;98096.73;1775478;80;21021;-83
2022/09/24 08:26:18;;;;;;;13.43;10.20;;;;;;;10.32;94.64;98095.63;1779294;80;20961;-89
2022/09/24 08:28:44;;;;;;;16.73;11.03;;;;;;;10.48;96.11;98092.88;1773060;80;22022;-89
2022/09/24 08:31:11;;;;;;;16.07;10.20;;;;;;;10.62;96.59;98097.42;1745863;80;20892;-83
2022/09/24 08:33:37;;;;;;;16.00;10.63;;;;;;;10.70;94.59;98092.78;1777219;80;21064;-88
2022/09/24 08:36:07;;;;;;;14.83;9.78;;;;;;;10.92;95.83;98097.00;1775425;80;21144;-83
2022/09/24 08:38:33;;;;;;;14.98;9.68;;;;;;;10.97;94.19;98092.36;1758887;80;21078;-89
2022/09/24 08:41:13;;;;;;;15.20;10.08;;;;;;;11.19;94.92;98099.27;1758013;81;20953;-89
2022/09/24 08:44:04;;;;;;;13.88;7.42;;;;;;;11.27;94.85;98095.41;1754907;80;21005;-84
2022/09/24 08:49:26;;;;;;;14.80;8.78;;;;;;;11.32;92.90;98098.64;1745979;79;21036;-84
2022/09/24 08:52:15;;;;;;;14.18;8.63;;;;;;;11.32;93.12;98095.13;1702360;81;21044;-90
2022/09/24 08:54:41;;;;;;;12.70;9.55;;;;;;;11.40;91.00;98092.62;1757883;81;21143;-84
2022/09/24 08:57:14;;;;;;;12.43;8.80;;;;;;;11.59;92.03;98085.95;1754361;80;20928;-84
2022/09/24 08:59:42;;;;;;;19.65;9.48;;;;;;;11.66;92.50;98086.44;1754398;81;21279;-84
2022/09/24 09:02:38;;;;;;;12.98;8.78;;;;;;;11.66;91.32;98091.86;1754271;80;21020;-84
2022/09/24 09:05:36;;;;;;;13.53;8.60;;;;;;;11.71;91.54;98079.62;1754406;81;20996;-83
2022/09/24 09:08:18;;;;;;;12.15;9.20;;;;;;;11.77;91.43;98084.44;1739207;81;21524;-89
2022/09/24 09:10:44;;;;;;;14.10;9.38;;;;;;;11.63;86.79;98080.23;1730278;81;21009;-88
2022/09/24 09:13:27;;;;;;;18.35;10.70;;;;;;;11.74;90.03;98074.97;1689066;81;20913;-85
2022/09/24 09:16:07;;;;;;;16.12;9.80;;;;;;;11.92;90.84;98082.16;1741113;80;21020;-88
2022/09/24 09:18:37;;;;;;;18.73;10.98;;;;;;;11.92;90.44;98075.38;1719285;81;21051;-89
2022/09/24 09:21:25;;;;;;;15.58;10.00;;;;;;;12.02;91.15;98069.28;1714568;83;21146;-84
2022/09/24 09:23:52;;;;;;;13.20;9.23;;;;;;;12.22;91.18;98066.08;1746336;80;21067;-90
2022/09/24 09:26:19;;;;;;;16.45;10.48;;;;;;;12.36;90.42;98058.86;1724439;83;21108;-84
2022/09/24 09:28:46;;;;;;;15.78;9.33;;;;;;;12.48;89.60;98051.67;1732227;81;21018;-89
2022/09/24 09:31:51;;;;;;;11.95;8.88;;;;;;;12.52;89.80;98055.41;1734991;81;21028;-89
2022/09/24 09:34:39;;;;;;;13.35;8.80;;;;;;;12.70;89.15;98058.14;1754232;81;21313;-83
2022/09/24 09:37:30;;;;;;;12.37;9.27;;;;;;;12.78;87.94;98050.44;1755888;81;21437;-87
2022/09/24 09:40:21;;;;;;;14.35;9.20;;;;;;;12.76;86.76;98041.78;1759401;81;20985;-89
2022/09/24 09:42:47;;;;;;;17.35;9.90;;;;;;;12.83;87.82;98042.23;1758919;80;22117;-89
2022/09/24 09:45:28;;;;;;;17.17;9.90;;;;;;;13.04;88.55;98028.58;1754546;81;20998;-89
2022/09/24 09:47:55;;;;;;;16.00;10.32;;;;;;;13.29;87.28;98026.05;1757221;81;21425;-89
2022/09/24 09:50:28;;;;;;;14.65;9.93;;;;;;;13.37;86.95;98024.56;1759552;81;21080;-89
2022/09/24 09:52:54;;;;;;;15.85;9.48;;;;;;;13.38;83.54;98031.06;1759650;81;21048;-84
2022/09/24 09:55:30;;;;;;;16.85;9.95;;;;;;;13.72;86.74;98025.30;1759485;81;21086;-84
2022/09/24 09:58:19;;;;;;;15.23;10.55;;;;;;;13.79;83.56;98027.09;1758136;81;21001;-90
2022/09/24 10:00:48;;;;;;;;;;;;;;;14.08;85.79;98030.08;1759593;81;21064;-84
2022/09/24 10:03:35;;;;;;;14.10;9.80;;;;;;;14.06;81.45;98025.50;1758047;80;20123;-89
2022/09/24 10:06:04;;;;;;;13.93;8.95;;;;;;;14.39;84.83;98010.66;1726548;83;21299;-84
2022/09/24 10:08:30;;;;;;;12.88;9.28;;;;;;;14.33;83.33;98013.23;1727625;81;21000;-89
2022/09/24 10:11:00;;;;;;;15.98;8.65;;;;;;;14.24;84.86;98005.52;1727636;83;21067;-84
2022/09/24 10:13:26;;;;;;;12.05;9.13;;;;;;;14.27;85.17;98006.81;1727240;81;21072;-85
2022/09/24 10:16:00;;;;;;;16.67;9.90;;;;;;;14.25;84.89;97999.51;1727624;83;21055;-90
2022/09/24 10:18:46;;;;;;;21.05;12.00;;;;;;;14.17;85.98;97991.48;1748108;80;21048;-90
2022/09/24 10:21:27;;;;;;;10.75;7.97;;;;;;;14.24;85.71;97993.80;1740630;81;21020;-89
2022/09/24 10:24:00;;;;;;;16.15;8.30;;;;;;;14.29;84.68;97990.98;1768980;80;21049;-84
2022/09/24 10:26:40;;;;;;;15.30;10.05;;;;;;;14.25;85.39;97994.86;1774047;80;21817;-90
2022/09/24 10:32:03;;;;;;;11.63;8.03;;;;;;;14.45;85.48;97990.95;1772883;80;21010;-84
2022/09/24 10:34:30;;;;;;;14.00;8.65;;;;;;;14.66;85.28;97992.11;1784662;80;21080;-84
2022/09/24 10:37:02;;;;;;;12.35;7.67;;;;;;;14.83;84.59;97983.84;1784371;80;21064;-88
2022/09/24 10:39:29;;;;;;;13.50;8.88;;;;;;;14.96;81.94;97981.63;1784587;80;21931;-85
2022/09/24 10:41:56;;;;;;;16.57;10.95;;;;;;;14.97;82.53;97987.33;1775608;80;21055;-91
2022/09/24 10:44:23;;;;;;;9.58;7.00;;;;;;;15.15;83.41;97988.27;1710220;82;21067;-89
2022/09/24 10:47:16;;;;;;;9.58;7.42;;;;;;;15.45;81.20;97987.49;1734188;80;21017;-84
2022/09/24 10:50:08;;;;;;;30.27;15.65;;;;;;;15.36;72.79;97985.27;1758948;81;21062;-84
2022/09/24 10:53:05;;;;;;;10.90;7.62;;;;;;;15.63;78.12;97976.70;1778443;80;21798;-84
2022/09/24 10:55:59;;;;;;;28.17;14.65;;;;;;;15.72;77.13;97978.91;1784365;80;21576;-84
2022/09/24 10:58:39;;;;;;;14.35;7.95;;;;;;;15.95;74.78;97979.11;1784372;80;21029;-85
2022/09/24 11:01:33;;;;;;;9.03;5.87;;;;;;;16.28;76.55;97976.81;1753041;80;21032;-89
2022/09/24 11:04:23;;;;;;;5.65;3.80;;;;;;;16.33;72.09;97973.94;1757721;81;21092;-84
2022/09/24 11:07:18;;;;;;;9.85;4.85;;;;;;;16.55;72.44;97973.00;1757647;81;21159;-89
2022/09/24 11:10:09;;;;;;;88.05;68.57;;;;;;;16.44;72.04;97968.16;1758095;81;21040;-89
2022/09/24 11:13:06;;;;;;;36.83;16.85;;;;;;;16.61;73.28;97966.26;1757812;81;21076;-85
2022/09/24 11:16:05;;;;;;;8.33;6.65;;;;;;;16.80;69.63;97957.77;1757620;81;21013;-84
2022/09/24 11:19:01;;;;;;;12.15;7.40;;;;;;;16.80;63.67;97951.49;1757570;80;21103;-90
2022/09/24 11:21:45;;;;;;;14.80;7.87;;;;;;;16.86;65.71;97943.37;1757232;81;21119;-90
2022/09/24 11:24:35;;;;;;;8.63;5.22;;;;;;;16.86;67.11;97942.00;1721356;83;21020;-89
2022/09/24 11:27:16;;;;;;;6.92;4.33;;;;;;;16.88;65.41;97943.28;1712943;82;21013;-89
2022/09/24 11:30:08;;;;;;;9.53;4.25;;;;;;;17.03;69.57;97937.09;1734004;82;21009;-90
2022/09/24 11:33:00;;;;;;;9.33;5.30;;;;;;;17.03;68.67;97937.09;1733844;82;21060;-85
2022/09/24 11:35:48;;;;;;;10.50;4.40;;;;;;;16.94;66.09;97934.92;1734177;82;21167;-90
2022/09/24 11:38:18;;;;;;;6.80;3.95;;;;;;;16.81;63.84;97933.38;1732939;82;21017;-90
2022/09/24 11:41:13;;;;;;;7.12;4.05;;;;;;;16.67;66.63;97925.89;1734672;82;20994;-90
2022/09/24 11:43:59;;;;;;;10.68;5.58;;;;;;;16.62;68.04;97924.66;1732269;81;20998;-84
2022/09/24 11:46:45;;;;;;;10.75;4.92;;;;;;;16.67;68.74;97925.89;1732954;82;21054;-85
2022/09/24 11:49:43;;;;;;;5.33;3.92;;;;;;;16.79;68.92;97930.73;1732886;81;21159;-85
2022/09/24 11:52:14;;;;;;;6.72;3.58;;;;;;;16.60;61.49;97927.72;1732944;81;21081;-84
2022/09/24 11:55:05;;;;;;;6.05;3.27;;;;;;;16.68;61.82;97931.59;1733482;82;21058;-89
2022/09/24 11:57:38;;;;;;;5.33;3.50;;;;;;;17.00;64.39;97935.78;1732853;81;21097;-85